createdAt,value
2019-02-05T00:01:08.583Z,2.10
2019-02-05T00:03:36.170Z,2.10
2019-02-05T00:06:03.842Z,2.10
2019-02-05T00:08:31.677Z,2.10
2019-02-05T00:10:59.750Z,2.10
2019-02-05T00:13:27.336Z,2.10
2019-02-05T00:15:54.916Z,2.10
2019-02-05T00:18:22.565Z,2.10
2019-02-05T00:20:50.228Z,2.10
2019-02-05T00:23:17.846Z,2.10
2019-02-05T00:25:45.316Z,2.10
2019-02-05T00:28:12.992Z,2.10
2019-02-05T00:30:40.723Z,2.10
2019-02-05T00:33:08.267Z,2.10
2019-02-05T00:35:35.771Z,2.10
2019-02-05T00:38:04.174Z,2.10
2019-02-05T00:40:32.015Z,2.20
2019-02-05T00:42:59.609Z,2.10
2019-02-05T00:45:27.101Z,2.20
2019-02-05T00:47:54.805Z,2.10
2019-02-05T00:50:22.597Z,2.10
2019-02-05T00:52:50.151Z,2.00
2019-02-05T00:55:18.455Z,2.10
2019-02-05T00:57:46.394Z,2.10
2019-02-05T01:00:22.224Z,2.10
2019-02-05T01:02:49.900Z,2.10
2019-02-05T01:05:17.919Z,2.00
2019-02-05T01:07:45.723Z,2.10
2019-02-05T01:10:13.670Z,2.10
2019-02-05T01:12:41.515Z,2.10
2019-02-05T01:15:11.795Z,2.10
2019-02-05T01:17:40.352Z,2.10
2019-02-05T01:20:12.024Z,2.00
2019-02-05T01:22:39.551Z,2.00
2019-02-05T01:25:07.375Z,2.00
2019-02-05T01:27:35.163Z,2.00
2019-02-05T01:30:04.914Z,2.00
2019-02-05T01:32:32.322Z,2.00
2019-02-05T01:34:59.979Z,2.00
2019-02-05T01:37:28.397Z,2.00
2019-02-05T01:39:55.815Z,2.00
2019-02-05T01:42:23.388Z,2.00
2019-02-05T01:44:51.528Z,2.00
2019-02-05T01:47:20.297Z,2.00
2019-02-05T01:49:48.024Z,2.00
2019-02-05T01:52:15.406Z,2.10
2019-02-05T01:54:43.876Z,2.10
2019-02-05T01:57:11.547Z,2.10
2019-02-05T01:59:39.127Z,2.10
2019-02-05T02:02:06.702Z,2.10
2019-02-05T02:04:34.492Z,2.10
2019-02-05T02:07:02.028Z,2.10
2019-02-05T02:09:29.615Z,2.10
2019-02-05T02:11:57.184Z,2.10
2019-02-05T02:14:24.786Z,2.10
2019-02-05T02:16:52.400Z,2.10
2019-02-05T02:19:19.941Z,2.10
2019-02-05T02:21:47.613Z,2.10
2019-02-05T02:24:15.128Z,2.20
2019-02-05T02:26:51.782Z,2.10
2019-02-05T02:29:12.064Z,1.90
2019-02-05T02:31:39.756Z,2.10
2019-02-05T02:34:07.252Z,2.10
2019-02-05T02:36:34.759Z,2.10
2019-02-05T02:39:05.061Z,2.10
2019-02-05T02:41:33.455Z,2.00
2019-02-05T02:44:01.102Z,2.00
2019-02-05T02:46:28.619Z,2.00
2019-02-05T02:48:56.032Z,2.00
2019-02-05T02:51:23.609Z,2.10
2019-02-05T02:53:51.220Z,1.90
2019-02-05T02:56:18.987Z,1.80
2019-02-05T02:58:46.610Z,1.80
2019-02-05T03:01:14.521Z,1.70
2019-02-05T03:03:42.140Z,1.50
2019-02-05T03:06:09.752Z,1.40
2019-02-05T03:08:37.719Z,1.30
2019-02-05T03:11:05.572Z,1.20
2019-02-05T03:13:33.352Z,1.20
2019-02-05T03:16:01.971Z,1.10
2019-02-05T03:18:29.510Z,1.10
2019-02-05T03:20:57.012Z,1.10
2019-02-05T03:23:24.693Z,1.00
2019-02-05T03:25:52.322Z,1.00
2019-02-05T03:28:19.921Z,1.00
2019-02-05T03:30:47.444Z,0.90
2019-02-05T03:33:14.962Z,0.80
2019-02-05T03:35:42.506Z,0.70
2019-02-05T03:38:10.023Z,0.60
2019-02-05T03:41:10.560Z,0.50
2019-02-05T03:43:39.779Z,0.40
2019-02-05T03:46:09.937Z,0.30
2019-02-05T03:48:38.414Z,0.20
2019-02-05T03:51:41.923Z,0.20
2019-02-05T03:55:13.456Z,0.10
2019-02-05T03:58:40.154Z,0.20
2019-02-05T04:01:53.674Z,-0.10
2019-02-05T04:05:22.220Z,-0.20
2019-02-05T04:08:54.837Z,-0.30
2019-02-05T04:12:13.254Z,-0.40
2019-02-05T04:15:05.213Z,-0.40
2019-02-05T04:18:20.119Z,-0.50
2019-02-05T04:21:44.440Z,-0.50
2019-02-05T04:24:43.166Z,-0.60
2019-02-05T04:27:50.283Z,-0.70
2019-02-05T04:30:56.863Z,-0.70
2019-02-05T04:33:53.838Z,-0.80
2019-02-05T04:37:22.393Z,-0.80
2019-02-05T04:40:35.347Z,-0.80
2019-02-05T04:43:44.965Z,-0.90
2019-02-05T04:47:21.826Z,-0.90
2019-02-05T04:50:26.283Z,-1.00
2019-02-05T04:53:49.119Z,-1.10
2019-02-05T04:57:12.798Z,-1.10
2019-02-05T05:00:22.256Z,-1.10
2019-02-05T05:03:51.549Z,-1.10
2019-02-05T05:07:29.873Z,-1.20
2019-02-05T05:09:58.978Z,-1.20
2019-02-05T05:12:27.891Z,-1.30
2019-02-05T05:14:55.675Z,-1.30
2019-02-05T05:17:23.274Z,-1.40
2019-02-05T05:19:51.349Z,-1.40
2019-02-05T05:22:19.091Z,-1.40
2019-02-05T05:24:46.773Z,-1.50
2019-02-05T05:27:16.964Z,-1.50
2019-02-05T05:29:45.045Z,-1.60
2019-02-05T05:32:12.814Z,-1.60
2019-02-05T05:34:40.472Z,-1.70
2019-02-05T05:37:07.725Z,-1.70
2019-02-05T05:39:35.723Z,-1.80
2019-02-05T05:42:03.362Z,-1.80
2019-02-05T05:44:31.137Z,-1.90
2019-02-05T05:46:58.612Z,-1.90
2019-02-05T05:49:26.182Z,-2.00
2019-02-05T05:51:53.721Z,-2.00
2019-02-05T05:54:21.148Z,-2.00
2019-02-05T05:56:48.748Z,-2.00
2019-02-05T05:59:16.137Z,-2.10
2019-02-05T06:01:43.636Z,-2.10
2019-02-05T06:04:11.218Z,-2.10
2019-02-05T06:06:39.061Z,-2.20
2019-02-05T06:09:08.152Z,-2.20
2019-02-05T06:11:35.851Z,-2.20
2019-02-05T06:14:04.075Z,-2.20
2019-02-05T06:16:31.469Z,-2.20
2019-02-05T06:18:59.039Z,-2.30
2019-02-05T06:21:26.529Z,-2.30
2019-02-05T06:23:54.087Z,-2.40
2019-02-05T06:26:22.666Z,-2.30
2019-02-05T06:28:50.410Z,-2.40
2019-02-05T06:31:17.890Z,-2.30
2019-02-05T06:33:46.517Z,-2.30
2019-02-05T06:36:14.118Z,-2.30
2019-02-05T06:38:44.635Z,-2.10
2019-02-05T06:41:11.298Z,-2.20
2019-02-05T06:43:38.984Z,-2.10
2019-02-05T06:46:06.464Z,-2.10
2019-02-05T06:48:34.217Z,-2.10
2019-02-05T06:51:02.251Z,-2.10
2019-02-05T06:53:29.852Z,-2.00
2019-02-05T06:55:58.189Z,-2.00
2019-02-05T06:58:26.292Z,-1.90
2019-02-05T07:00:55.429Z,-1.80
2019-02-05T07:03:23.062Z,-1.70
2019-02-05T07:05:50.776Z,-1.50
2019-02-05T07:08:18.279Z,-1.30
2019-02-05T07:10:45.922Z,-1.00
2019-02-05T07:13:13.618Z,-0.80
2019-02-05T07:15:41.057Z,-0.50
2019-02-05T07:18:08.806Z,-0.20
2019-02-05T07:20:36.564Z,0.10
2019-02-05T07:23:04.436Z,0.40
2019-02-05T07:25:36.105Z,0.70
2019-02-05T07:28:03.957Z,1.10
2019-02-05T07:30:31.607Z,1.50
2019-02-05T07:32:59.284Z,1.80
2019-02-05T07:35:26.882Z,2.00
2019-02-05T07:37:54.745Z,2.30
2019-02-05T07:40:33.752Z,2.60
2019-02-05T07:43:04.692Z,3.20
2019-02-05T07:45:36.881Z,4.10
2019-02-05T07:48:04.659Z,4.90
2019-02-05T07:50:33.513Z,5.80
2019-02-05T07:53:01.113Z,6.70
2019-02-05T07:55:28.507Z,7.40
2019-02-05T07:57:56.009Z,8.10
2019-02-05T08:00:25.971Z,8.80
2019-02-05T08:02:53.651Z,9.40
2019-02-05T08:05:25.893Z,10.00
2019-02-05T08:07:53.664Z,10.80
2019-02-05T08:10:21.413Z,11.40
2019-02-05T08:12:49.621Z,12.20
2019-02-05T08:15:21.736Z,13.00
2019-02-05T08:17:49.589Z,13.80
2019-02-05T08:20:17.156Z,14.70
2019-02-05T08:22:44.619Z,15.40
2019-02-05T08:25:17.263Z,16.00
2019-02-05T08:27:47.781Z,16.80
2019-02-05T08:30:19.405Z,17.20
2019-02-05T08:32:46.896Z,17.40
2019-02-05T08:35:17.014Z,17.90
2019-02-05T08:37:46.586Z,18.20
2019-02-05T08:40:21.371Z,18.60
2019-02-05T08:42:49.841Z,19.00
2019-02-05T08:45:20.946Z,19.20
2019-02-05T08:47:48.773Z,20.00
2019-02-05T08:50:19.476Z,20.10
2019-02-05T08:52:47.060Z,20.30
2019-02-05T08:55:16.584Z,21.40
2019-02-05T08:57:45.087Z,22.60
2019-02-05T09:00:16.917Z,23.10
2019-02-05T09:02:44.913Z,23.50
2019-02-05T09:05:14.384Z,23.90
2019-02-05T09:07:42.059Z,24.10
2019-02-05T09:10:13.043Z,24.10
2019-02-05T09:12:40.649Z,24.10
2019-02-05T09:15:09.874Z,24.70
2019-02-05T09:17:37.626Z,25.00
2019-02-05T09:20:08.578Z,25.50
2019-02-05T09:22:36.063Z,26.20
2019-02-05T09:25:04.135Z,26.60
2019-02-05T09:27:31.979Z,27.30
2019-02-05T09:29:59.728Z,28.00
2019-02-05T09:32:27.112Z,28.20
2019-02-05T09:34:55.074Z,28.60
2019-02-05T09:37:22.623Z,29.20
2019-02-05T09:39:50.458Z,29.50
2019-02-05T09:42:17.851Z,29.80
2019-02-05T09:44:45.372Z,30.30
2019-02-05T09:47:13.601Z,30.70
2019-02-05T09:49:41.266Z,31.10
2019-02-05T09:52:09.184Z,31.50
2019-02-05T09:54:37.474Z,31.70
2019-02-05T09:57:06.160Z,32.10
2019-02-05T09:59:44.928Z,32.60
2019-02-05T10:02:06.254Z,32.70
2019-02-05T10:04:35.013Z,33.00
2019-02-05T10:07:03.692Z,32.80
2019-02-05T10:09:31.282Z,32.70
2019-02-05T10:12:00.064Z,33.10
2019-02-05T10:14:28.492Z,33.50
2019-02-05T10:16:58.620Z,34.10
2019-02-05T10:19:26.253Z,34.60
2019-02-05T10:21:54.395Z,35.10
2019-02-05T10:24:22.225Z,35.40
2019-02-05T10:26:51.203Z,35.60
2019-02-05T10:29:18.730Z,36.00
2019-02-05T10:31:46.841Z,36.30
2019-02-05T10:34:16.570Z,36.60
2019-02-05T10:36:45.622Z,36.70
2019-02-05T10:39:13.621Z,36.60
2019-02-05T10:41:44.838Z,36.70
2019-02-05T10:44:12.856Z,36.80
2019-02-05T10:46:40.390Z,36.50
2019-02-05T10:49:07.843Z,36.80
2019-02-05T10:51:35.342Z,37.10
2019-02-05T10:54:03.285Z,37.00
2019-02-05T10:56:30.879Z,36.90
2019-02-05T10:59:00.225Z,37.20
2019-02-05T11:01:28.847Z,37.60
2019-02-05T11:03:56.401Z,37.80
2019-02-05T11:06:23.895Z,38.10
2019-02-05T11:08:51.757Z,38.40
2019-02-05T11:11:19.559Z,38.70
2019-02-05T11:13:46.946Z,38.50
2019-02-05T11:16:14.566Z,38.50
2019-02-05T11:18:42.069Z,38.70
2019-02-05T11:21:09.715Z,38.50
2019-02-05T11:23:37.306Z,38.40
2019-02-05T11:26:05.276Z,38.60
2019-02-05T11:28:33.543Z,39.00
2019-02-05T11:31:01.373Z,39.20
2019-02-05T11:33:28.915Z,39.60
2019-02-05T11:35:56.268Z,39.50
2019-02-05T11:38:24.038Z,39.60
2019-02-05T11:40:53.192Z,39.50
2019-02-05T11:43:21.057Z,39.20
2019-02-05T11:45:49.171Z,38.90
2019-02-05T11:48:18.226Z,38.80
2019-02-05T11:50:46.058Z,39.00
2019-02-05T11:53:14.713Z,38.80
2019-02-05T11:55:42.975Z,38.10
2019-02-05T11:58:14.533Z,37.40
2019-02-05T12:00:48.590Z,36.90
2019-02-05T12:03:17.074Z,36.60
2019-02-05T12:06:37.422Z,36.60
2019-02-05T12:09:19.058Z,36.40
2019-02-05T12:11:47.586Z,36.30
2019-02-05T12:14:15.882Z,34.40
2019-02-05T12:16:43.464Z,33.50
2019-02-05T12:19:11.785Z,33.40
2019-02-05T12:21:41.190Z,33.60
2019-02-05T12:24:09.224Z,34.00
2019-02-05T12:26:37.598Z,34.80
2019-02-05T12:29:05.220Z,34.90
2019-02-05T12:31:32.855Z,35.40
2019-02-05T12:34:00.418Z,35.60
2019-02-05T12:36:28.081Z,35.30
2019-02-05T12:38:55.822Z,34.60
2019-02-05T12:41:23.343Z,34.80
2019-02-05T12:43:52.339Z,34.80
2019-02-05T12:46:20.215Z,34.80
2019-02-05T12:48:47.786Z,34.90
2019-02-05T12:51:15.164Z,35.40
2019-02-05T12:53:42.878Z,35.60
2019-02-05T12:56:12.035Z,35.70
2019-02-05T12:58:42.952Z,35.80
2019-02-05T13:01:11.145Z,35.90
2019-02-05T13:03:40.185Z,35.40
2019-02-05T13:06:11.426Z,35.10
2019-02-05T13:08:39.549Z,35.00
2019-02-05T13:11:08.658Z,34.80
2019-02-05T13:13:36.739Z,34.90
2019-02-05T13:16:04.876Z,34.70
2019-02-05T13:18:36.795Z,34.70
2019-02-05T13:21:05.470Z,34.70
2019-02-05T13:23:33.061Z,34.50
2019-02-05T13:26:00.635Z,34.50
2019-02-05T13:28:28.478Z,34.50
2019-02-05T13:31:07.621Z,34.50
2019-02-05T13:33:28.051Z,34.50
2019-02-05T13:35:55.683Z,33.80
2019-02-05T13:38:23.398Z,33.00
2019-02-05T13:40:50.848Z,32.50
2019-02-05T13:43:18.356Z,32.40
2019-02-05T13:45:46.036Z,32.30
2019-02-05T13:48:13.579Z,32.00
2019-02-05T13:50:41.388Z,31.80
2019-02-05T13:53:09.673Z,31.10
2019-02-05T13:55:40.910Z,29.90
2019-02-05T13:58:09.163Z,28.80
2019-02-05T14:00:40.560Z,27.20
2019-02-05T14:03:09.687Z,25.10
2019-02-05T14:05:37.778Z,24.40
2019-02-05T14:08:05.501Z,24.70
2019-02-05T14:10:33.717Z,25.10
2019-02-05T14:13:01.346Z,24.70
2019-02-05T14:15:31.995Z,24.30
2019-02-05T14:17:59.600Z,23.70
2019-02-05T14:20:27.515Z,23.10
2019-02-05T14:22:56.446Z,22.60
2019-02-05T14:25:24.155Z,22.40
2019-02-05T14:27:51.795Z,22.50
2019-02-05T14:30:50.522Z,22.60
2019-02-05T14:33:18.486Z,22.40
2019-02-05T14:35:46.164Z,21.90
2019-02-05T14:38:14.833Z,21.70
2019-02-05T14:40:42.985Z,21.40
2019-02-05T14:43:13.014Z,20.90
2019-02-05T14:45:41.138Z,20.50
2019-02-05T14:48:09.413Z,20.10
2019-02-05T14:50:39.213Z,19.60
2019-02-05T14:53:10.296Z,18.80
2019-02-05T14:55:43.277Z,18.00
2019-02-05T14:58:18.221Z,16.80
2019-02-05T15:01:43.118Z,15.50
2019-02-05T15:04:11.849Z,14.20
2019-02-05T15:06:44.635Z,12.80
2019-02-05T15:09:13.073Z,11.80
2019-02-05T15:11:46.428Z,10.90
2019-02-05T15:14:14.687Z,10.20
2019-02-05T15:16:42.551Z,9.50
2019-02-05T15:19:13.931Z,8.90
2019-02-05T15:21:42.962Z,8.50
2019-02-05T15:24:11.117Z,7.90
2019-02-05T15:26:41.201Z,7.50
2019-02-05T15:29:08.949Z,7.10
2019-02-05T15:31:37.568Z,6.70
2019-02-05T15:34:21.697Z,6.40
2019-02-05T15:36:51.936Z,6.10
2019-02-05T15:39:22.307Z,5.70
2019-02-05T15:41:50.111Z,5.40
2019-02-05T15:44:17.614Z,5.20
2019-02-05T15:46:45.315Z,4.90
2019-02-05T15:49:13.028Z,4.70
2019-02-05T15:51:40.820Z,4.40
2019-02-05T15:54:08.533Z,4.20
2019-02-05T15:56:36.180Z,3.90
2019-02-05T15:59:08.487Z,3.80
2019-02-05T16:01:36.366Z,3.60
2019-02-05T16:04:04.079Z,3.40
2019-02-05T16:06:32.088Z,3.20
2019-02-05T16:08:59.616Z,3.00
2019-02-05T16:11:26.990Z,2.80
2019-02-05T16:13:54.513Z,2.70
2019-02-05T16:16:22.419Z,2.50
2019-02-05T16:18:53.208Z,2.30
2019-02-05T16:21:19.890Z,2.10
2019-02-05T16:23:47.463Z,2.00
2019-02-05T16:26:16.305Z,1.90
2019-02-05T16:28:44.261Z,1.70
2019-02-05T16:31:11.818Z,1.60
2019-02-05T16:33:39.702Z,1.50
2019-02-05T16:36:07.506Z,1.40
2019-02-05T16:38:35.126Z,1.30
2019-02-05T16:41:04.191Z,1.20
2019-02-05T16:43:31.690Z,1.10
2019-02-05T16:45:59.254Z,1.00
2019-02-05T16:48:29.939Z,1.00
2019-02-05T16:50:57.443Z,0.80
2019-02-05T16:53:25.295Z,0.70
2019-02-05T16:55:53.554Z,0.60
2019-02-05T16:58:22.134Z,0.50
2019-02-05T17:00:51.077Z,0.40
2019-02-05T17:03:19.282Z,0.30
2019-02-05T17:05:47.990Z,0.20
2019-02-05T17:08:15.626Z,0.20
2019-02-05T17:10:46.126Z,0.10
2019-02-05T17:13:14.529Z,0.10
2019-02-05T17:15:44.370Z,0.00
2019-02-05T17:18:22.895Z,0.00
2019-02-05T17:20:43.760Z,-0.10
2019-02-05T17:23:11.288Z,-0.10
2019-02-05T17:25:39.369Z,-0.20
2019-02-05T17:28:07.173Z,-0.30
2019-02-05T17:30:37.033Z,-0.40
2019-02-05T17:33:05.200Z,-0.40
2019-02-05T17:35:35.358Z,-0.50
2019-02-05T17:38:03.323Z,-0.50
2019-02-05T17:40:31.652Z,-0.60
2019-02-05T17:42:59.275Z,-0.60
2019-02-05T17:45:32.961Z,-0.60
2019-02-05T17:48:05.020Z,-0.60
2019-02-05T17:50:32.803Z,-0.70
2019-02-05T17:53:00.840Z,-0.60
2019-02-05T17:55:28.613Z,-0.80
2019-02-05T17:57:57.160Z,-0.80
2019-02-05T18:00:31.272Z,-0.80
2019-02-05T18:02:59.032Z,-0.90
2019-02-05T18:05:27.633Z,-1.00
2019-02-05T18:07:56.508Z,-1.10
2019-02-05T18:10:25.232Z,-1.20
2019-02-05T18:12:52.836Z,-1.30
2019-02-05T18:15:27.287Z,-1.40
2019-02-05T18:17:54.933Z,-1.40
2019-02-05T18:20:22.532Z,-1.50
2019-02-05T18:22:50.650Z,-1.50
2019-02-05T18:25:19.570Z,-1.50
2019-02-05T18:27:47.524Z,-1.60
2019-02-05T18:30:27.736Z,-1.60
2019-02-05T18:33:03.150Z,-1.60
2019-02-05T18:35:25.849Z,-1.60
2019-02-05T18:37:53.977Z,-1.60
2019-02-05T18:40:26.020Z,-1.60
2019-02-05T18:42:54.426Z,-1.60
2019-02-05T18:45:22.614Z,-1.60
2019-02-05T18:47:50.863Z,-1.60
2019-02-05T18:50:23.641Z,-1.60
2019-02-05T18:52:51.384Z,-1.70
2019-02-05T18:55:20.818Z,-1.70
2019-02-05T18:57:49.429Z,-1.70
2019-02-05T19:00:29.706Z,-1.80
2019-02-05T19:02:57.337Z,-1.80
2019-02-05T19:05:25.879Z,-1.70
2019-02-05T19:07:53.848Z,-1.80
2019-02-05T19:10:24.535Z,-1.80
2019-02-05T19:12:52.591Z,-1.80
2019-02-05T19:15:25.830Z,-1.80
2019-02-05T19:17:53.608Z,-1.80
2019-02-05T19:20:24.440Z,-1.80
2019-02-05T19:22:52.505Z,-1.80
2019-02-05T19:25:38.531Z,-1.90
2019-02-05T19:28:06.861Z,-1.90
2019-02-05T19:30:35.794Z,-1.90
2019-02-05T19:33:03.680Z,-2.00
2019-02-05T19:35:31.817Z,-2.00
2019-02-05T19:37:59.671Z,-2.00
2019-02-05T19:40:27.418Z,-1.90
2019-02-05T19:42:55.301Z,-1.90
2019-02-05T19:46:01.099Z,-2.00
2019-02-05T19:48:40.527Z,-2.00
2019-02-05T19:51:09.239Z,-2.00
2019-02-05T19:53:39.458Z,-2.00
2019-02-05T19:56:08.136Z,-2.00
2019-02-05T19:58:36.204Z,-2.00
2019-02-05T20:01:05.461Z,-2.00
2019-02-05T20:03:38.722Z,-2.00
2019-02-05T20:06:39.617Z,-2.00
2019-02-05T20:09:13.621Z,-2.00
2019-02-05T20:11:41.750Z,-2.00
2019-02-05T20:14:09.531Z,-2.00
2019-02-05T20:16:42.861Z,-2.00
2019-02-05T20:19:14.278Z,-2.00
2019-02-05T20:21:44.377Z,-2.20
2019-02-05T20:24:12.769Z,-2.10
2019-02-05T20:26:40.203Z,-2.10
2019-02-05T20:29:09.846Z,-2.10
2019-02-05T20:31:38.468Z,-2.20
2019-02-05T20:34:07.288Z,-2.20
2019-02-05T20:36:35.153Z,-2.30
2019-02-05T20:39:11.624Z,-2.30
2019-02-05T20:41:43.518Z,-2.30
2019-02-05T20:44:12.414Z,-2.40
2019-02-05T20:46:40.024Z,-2.40
2019-02-05T20:49:12.530Z,-2.40
2019-02-05T20:51:41.195Z,-2.40
2019-02-05T20:54:08.817Z,-2.40
2019-02-05T20:56:36.494Z,-2.50
2019-02-05T20:59:07.212Z,-2.50
2019-02-05T21:01:35.115Z,-2.40
2019-02-05T21:04:03.342Z,-2.50
2019-02-05T21:06:30.977Z,-2.50
2019-02-05T21:08:59.404Z,-2.50
2019-02-05T21:11:28.692Z,-2.60
2019-02-05T21:13:56.376Z,-2.60
2019-02-05T21:16:24.405Z,-2.70
2019-02-05T21:18:52.131Z,-2.60
2019-02-05T21:21:19.501Z,-2.60
2019-02-05T21:23:48.105Z,-2.60
2019-02-05T21:26:16.514Z,-2.60
2019-02-05T21:28:44.341Z,-2.70
2019-02-05T21:31:11.969Z,-2.60
2019-02-05T21:33:39.540Z,-2.60
2019-02-05T21:36:07.192Z,-2.60
2019-02-05T21:38:35.526Z,-2.70
2019-02-05T21:41:03.254Z,-2.70
2019-02-05T21:43:30.924Z,-2.70
2019-02-05T21:46:00.977Z,-2.70
2019-02-05T21:48:27.791Z,-2.70
2019-02-05T21:50:56.538Z,-2.70
2019-02-05T21:53:24.028Z,-2.70
2019-02-05T21:55:51.699Z,-2.70
2019-02-05T21:58:19.415Z,-2.70
2019-02-05T22:00:47.102Z,-2.60
2019-02-05T22:03:14.738Z,-2.60
2019-02-05T22:05:42.612Z,-2.50
2019-02-05T22:08:10.885Z,-2.50
2019-02-05T22:10:38.643Z,-2.50
2019-02-05T22:13:07.530Z,-2.50
2019-02-05T22:15:35.222Z,-2.50
2019-02-05T22:18:02.962Z,-2.50
2019-02-05T22:20:30.750Z,-2.50
2019-02-05T22:22:58.440Z,-2.50
2019-02-05T22:25:26.965Z,-2.50
2019-02-05T22:27:54.649Z,-2.40
2019-02-05T22:30:30.865Z,-2.30
2019-02-05T22:32:58.702Z,-2.20
2019-02-05T22:35:26.373Z,-2.00
2019-02-05T22:37:54.523Z,-1.90
2019-02-05T22:40:23.791Z,-1.70
2019-02-05T22:42:51.664Z,-1.60
2019-02-05T22:45:20.903Z,-1.50
2019-02-05T22:47:48.795Z,-1.40
2019-02-05T22:50:22.585Z,-1.30
2019-02-05T22:52:50.212Z,-1.20
2019-02-05T22:55:17.898Z,-1.10
2019-02-05T22:57:45.675Z,-1.00
2019-02-05T23:00:43.464Z,-1.00
2019-02-05T23:03:12.001Z,-0.90
2019-02-05T23:06:22.036Z,-0.80
2019-02-05T23:08:50.325Z,-0.80
2019-02-05T23:12:13.082Z,-0.80
2019-02-05T23:14:41.169Z,-0.70
2019-02-05T23:17:09.023Z,-0.60
2019-02-05T23:19:36.641Z,-0.60
2019-02-05T23:22:04.826Z,-0.50
2019-02-05T23:24:32.377Z,-0.50
2019-02-05T23:27:00.255Z,-0.40
2019-02-05T23:29:27.825Z,-0.50
2019-02-05T23:31:55.679Z,-0.50
2019-02-05T23:34:23.407Z,-0.50
2019-02-05T23:36:50.963Z,-0.50
2019-02-05T23:39:20.908Z,-0.50
2019-02-05T23:41:48.191Z,-0.50
2019-02-05T23:44:15.998Z,-0.50
2019-02-05T23:46:43.568Z,-0.40
2019-02-05T23:49:12.545Z,-0.40
2019-02-05T23:51:40.211Z,-0.40
2019-02-05T23:54:07.876Z,-0.30
2019-02-05T23:56:35.730Z,-0.30
2019-02-05T23:59:03.708Z,-0.20
